sensor_id;sensor_type;location;lat;lon;timestamp;pressure;altitude;pressure_sealevel;temperature;humidity
25084;BME280;13075;55.682;37.564;2023-04-20T00:00:58;100238.31;;;14.81;32.74
25084;BME280;13075;55.682;37.564;2023-04-20T00:03:23;100226.53;;;14.76;32.97
25084;BME280;13075;55.682;37.564;2023-04-20T00:05:50;100220.91;;;14.77;32.52
25084;BME280;13075;55.682;37.564;2023-04-20T00:08:16;100227.41;;;14.50;33.02
25084;BME280;13075;55.682;37.564;2023-04-20T00:10:44;100223.03;;;14.62;32.72
25084;BME280;13075;55.682;37.564;2023-04-20T00:13:10;100226.94;;;14.73;32.90
25084;BME280;13075;55.682;37.564;2023-04-20T00:15:35;100233.38;;;14.72;32.70
25084;BME280;13075;55.682;37.564;2023-04-20T00:18:01;100229.03;;;14.64;32.87
25084;BME280;13075;55.682;37.564;2023-04-20T00:20:26;100227.81;;;14.60;33.35
25084;BME280;13075;55.682;37.564;2023-04-20T00:22:52;100228.19;;;14.64;33.04
25084;BME280;13075;55.682;37.564;2023-04-20T00:25:18;100226.13;;;14.59;33.65
25084;BME280;13075;55.682;37.564;2023-04-20T00:27:44;100216.41;;;14.65;33.25
25084;BME280;13075;55.682;37.564;2023-04-20T00:30:11;100227.56;;;14.62;33.99
25084;BME280;13075;55.682;37.564;2023-04-20T00:32:36;100226.13;;;14.59;33.79
25084;BME280;13075;55.682;37.564;2023-04-20T00:35:02;100223.47;;;14.53;33.47
25084;BME280;13075;55.682;37.564;2023-04-20T00:37:27;100212.88;;;14.38;33.63
25084;BME280;13075;55.682;37.564;2023-04-20T00:39:54;100212.88;;;14.25;33.44
25084;BME280;13075;55.682;37.564;2023-04-20T00:42:19;100207.94;;;14.42;33.91
25084;BME280;13075;55.682;37.564;2023-04-20T00:44:45;100203.56;;;14.47;34.17
25084;BME280;13075;55.682;37.564;2023-04-20T00:47:10;100205.22;;;14.48;34.09
25084;BME280;13075;55.682;37.564;2023-04-20T00:49:35;100200.28;;;14.45;33.71
25084;BME280;13075;55.682;37.564;2023-04-20T00:52:01;100196.09;;;14.23;34.20
25084;BME280;13075;55.682;37.564;2023-04-20T00:54:27;100191.38;;;14.31;34.29
25084;BME280;13075;55.682;37.564;2023-04-20T00:56:53;100190.53;;;14.38;34.00
25084;BME280;13075;55.682;37.564;2023-04-20T00:59:19;100190.31;;;14.32;34.19
25084;BME280;13075;55.682;37.564;2023-04-20T01:01:45;100188.28;;;14.34;34.05
25084;BME280;13075;55.682;37.564;2023-04-20T01:04:10;100187.22;;;14.42;33.75
25084;BME280;13075;55.682;37.564;2023-04-20T01:06:35;100188.03;;;14.29;34.18
25084;BME280;13075;55.682;37.564;2023-04-20T01:09:01;100183.69;;;14.35;34.69
25084;BME280;13075;55.682;37.564;2023-04-20T01:11:28;100187.63;;;14.26;34.71
25084;BME280;13075;55.682;37.564;2023-04-20T01:13:54;100184.09;;;14.19;34.89
25084;BME280;13075;55.682;37.564;2023-04-20T01:16:19;100189.28;;;14.27;35.35
25084;BME280;13075;55.682;37.564;2023-04-20T01:18:48;100176.44;;;14.29;35.13
25084;BME280;13075;55.682;37.564;2023-04-20T01:21:15;100171.47;;;14.19;35.00
25084;BME280;13075;55.682;37.564;2023-04-20T01:23:41;100190.72;;;14.23;35.62
25084;BME280;13075;55.682;37.564;2023-04-20T01:26:07;100188.84;;;14.30;35.91
25084;BME280;13075;55.682;37.564;2023-04-20T01:28:33;100179.53;;;14.13;36.45
25084;BME280;13075;55.682;37.564;2023-04-20T01:30:59;100180.34;;;14.20;36.45
25084;BME280;13075;55.682;37.564;2023-04-20T01:33:24;100181.41;;;14.06;35.21
25084;BME280;13075;55.682;37.564;2023-04-20T01:35:51;100181.81;;;14.09;35.48
25084;BME280;13075;55.682;37.564;2023-04-20T01:38:17;100173.34;;;14.06;35.69
25084;BME280;13075;55.682;37.564;2023-04-20T01:40:43;100170.63;;;14.12;35.35
25084;BME280;13075;55.682;37.564;2023-04-20T01:43:08;100170.22;;;14.02;36.25
25084;BME280;13075;55.682;37.564;2023-04-20T01:45:33;100166.91;;;14.07;35.66
25084;BME280;13075;55.682;37.564;2023-04-20T01:47:59;100166.91;;;14.07;35.70
25084;BME280;13075;55.682;37.564;2023-04-20T01:50:25;100170.25;;;14.09;35.77
25084;BME280;13075;55.682;37.564;2023-04-20T01:52:50;100165.28;;;14.06;35.84
25084;BME280;13075;55.682;37.564;2023-04-20T01:55:16;100165.91;;;14.01;36.33
25084;BME280;13075;55.682;37.564;2023-04-20T01:57:41;100159.06;;;13.72;36.66
25084;BME280;13075;55.682;37.564;2023-04-20T02:00:09;100157.38;;;13.91;36.31
25084;BME280;13075;55.682;37.564;2023-04-20T02:02:42;100160.72;;;13.93;36.27
25084;BME280;13075;55.682;37.564;2023-04-20T02:05:07;100157.19;;;13.93;35.92
25084;BME280;13075;55.682;37.564;2023-04-20T02:07:33;100161.13;;;13.97;36.05
25084;BME280;13075;55.682;37.564;2023-04-20T02:09:58;100148.91;;;13.81;35.74
25084;BME280;13075;55.682;37.564;2023-04-20T02:12:24;100152.22;;;13.90;36.25
25084;BME280;13075;55.682;37.564;2023-04-20T02:14:49;100146.84;;;13.90;36.09
25084;BME280;13075;55.682;37.564;2023-04-20T02:17:15;100152.22;;;13.96;36.59
25084;BME280;13075;55.682;37.564;2023-04-20T02:19:40;100149.94;;;13.87;37.13
25084;BME280;13075;55.682;37.564;2023-04-20T02:22:06;100147.66;;;13.84;36.84
25084;BME280;13075;55.682;37.564;2023-04-20T02:24:31;100146.84;;;13.83;36.90
25084;BME280;13075;55.682;37.564;2023-04-20T02:26:57;100153.66;;;13.92;36.88
25084;BME280;13075;55.682;37.564;2023-04-20T02:29:23;100153.66;;;13.66;36.92
25084;BME280;13075;55.682;37.564;2023-04-20T02:31:48;100149.94;;;13.80;36.51
25084;BME280;13075;55.682;37.564;2023-04-20T02:34:14;100164.22;;;13.74;36.97
25084;BME280;13075;55.682;37.564;2023-04-20T02:36:40;100163.00;;;13.83;36.89
25084;BME280;13075;55.682;37.564;2023-04-20T02:39:05;100157.81;;;14.01;36.64
25084;BME280;13075;55.682;37.564;2023-04-20T02:41:32;100161.09;;;13.84;37.27
25084;BME280;13075;55.682;37.564;2023-04-20T02:43:59;100164.00;;;13.82;36.82
25084;BME280;13075;55.682;37.564;2023-04-20T02:46:24;100164.03;;;13.95;36.42
25084;BME280;13075;55.682;37.564;2023-04-20T02:48:50;100154.91;;;13.96;36.76
25084;BME280;13075;55.682;37.564;2023-04-20T02:51:15;100153.66;;;14.12;36.63
25084;BME280;13075;55.682;37.564;2023-04-20T02:53:43;100157.00;;;14.14;36.98
25084;BME280;13075;55.682;37.564;2023-04-20T02:56:29;100144.59;;;14.06;36.46
25084;BME280;13075;55.682;37.564;2023-04-20T02:58:59;100152.00;;;14.17;36.45
25084;BME280;13075;55.682;37.564;2023-04-20T03:01:30;100155.53;;;13.92;36.46
25084;BME280;13075;55.682;37.564;2023-04-20T03:04:08;100150.16;;;14.05;36.69
25084;BME280;13075;55.682;37.564;2023-04-20T03:06:40;100157.19;;;14.19;36.30
25084;BME280;13075;55.682;37.564;2023-04-20T03:09:11;100150.75;;;14.26;36.19
25084;BME280;13075;55.682;37.564;2023-04-20T03:12:03;100141.66;;;14.21;36.32
25084;BME280;13075;55.682;37.564;2023-04-20T03:14:53;100144.75;;;14.38;35.86
25084;BME280;13075;55.682;37.564;2023-04-20T03:17:23;100142.91;;;14.38;35.92
25084;BME280;13075;55.682;37.564;2023-04-20T03:19:49;100136.47;;;14.52;36.35
25084;BME280;13075;55.682;37.564;2023-04-20T03:22:14;100137.69;;;14.56;35.81
25084;BME280;13075;55.682;37.564;2023-04-20T03:24:44;100140.78;;;14.60;36.27
25084;BME280;13075;55.682;37.564;2023-04-20T03:27:28;100121.81;;;14.99;35.64
25084;BME280;13075;55.682;37.564;2023-04-20T03:30:03;100130.75;;;16.97;33.45
25084;BME280;13075;55.682;37.564;2023-04-20T03:32:28;100122.38;;;17.88;31.76
25084;BME280;13075;55.682;37.564;2023-04-20T03:34:54;100121.81;;;17.86;31.78
25084;BME280;13075;55.682;37.564;2023-04-20T03:37:19;100123.22;;;17.88;31.54
25084;BME280;13075;55.682;37.564;2023-04-20T03:39:45;100129.22;;;17.90;31.18
25084;BME280;13075;55.682;37.564;2023-04-20T03:42:11;100125.50;;;17.62;31.06
25084;BME280;13075;55.682;37.564;2023-04-20T03:44:36;100134.19;;;17.04;32.35
25084;BME280;13075;55.682;37.564;2023-04-20T03:47:03;100140.88;;;16.83;32.22
25084;BME280;13075;55.682;37.564;2023-04-20T03:49:30;100134.06;;;17.59;31.23
25084;BME280;13075;55.682;37.564;2023-04-20T03:51:56;100129.97;;;17.08;31.85
25084;BME280;13075;55.682;37.564;2023-04-20T03:54:21;100136.22;;;16.91;32.20
25084;BME280;13075;55.682;37.564;2023-04-20T03:56:47;100129.06;;;17.14;31.89
25084;BME280;13075;55.682;37.564;2023-04-20T03:59:14;100124.03;;;17.18;31.68
25084;BME280;13075;55.682;37.564;2023-04-20T04:01:43;100127.56;;;18.13;30.62
25084;BME280;13075;55.682;37.564;2023-04-20T04:04:09;100124.56;;;18.55;30.34
25084;BME280;13075;55.682;37.564;2023-04-20T04:06:34;100124.53;;;18.21;30.68
25084;BME280;13075;55.682;37.564;2023-04-20T04:09:00;100119.22;;;18.26;31.21
25084;BME280;13075;55.682;37.564;2023-04-20T04:11:25;100120.81;;;18.96;30.25
25084;BME280;13075;55.682;37.564;2023-04-20T04:13:56;100110.97;;;18.44;30.38
25084;BME280;13075;55.682;37.564;2023-04-20T04:16:22;100114.38;;;17.52;31.38
25084;BME280;13075;55.682;37.564;2023-04-20T04:18:48;100118.69;;;17.11;32.01
25084;BME280;13075;55.682;37.564;2023-04-20T04:21:14;100108.53;;;17.25;31.87
25084;BME280;13075;55.682;37.564;2023-04-20T04:23:44;100106.03;;;18.06;31.00
25084;BME280;13075;55.682;37.564;2023-04-20T04:26:17;100105.69;;;18.49;30.63
25084;BME280;13075;55.682;37.564;2023-04-20T04:28:45;100114.50;;;18.56;30.66
25084;BME280;13075;55.682;37.564;2023-04-20T04:31:16;100107.47;;;19.96;29.05
25084;BME280;13075;55.682;37.564;2023-04-20T04:33:46;100104.91;;;21.80;27.25
25084;BME280;13075;55.682;37.564;2023-04-20T04:36:19;100097.41;;;23.83;25.45
25084;BME280;13075;55.682;37.564;2023-04-20T04:38:45;100094.97;;;21.95;26.59
25084;BME280;13075;55.682;37.564;2023-04-20T04:41:12;100095.88;;;22.48;26.34
25084;BME280;13075;55.682;37.564;2023-04-20T04:43:39;100085.69;;;23.92;24.91
25084;BME280;13075;55.682;37.564;2023-04-20T04:46:18;100087.56;;;25.60;24.11
25084;BME280;13075;55.682;37.564;2023-04-20T04:48:43;100088.38;;;25.61;23.77
25084;BME280;13075;55.682;37.564;2023-04-20T04:51:09;100081.78;;;26.77;22.95
25084;BME280;13075;55.682;37.564;2023-04-20T04:53:35;100096.25;;;24.49;24.73
25084;BME280;13075;55.682;37.564;2023-04-20T04:56:00;100093.66;;;22.86;26.27
25084;BME280;13075;55.682;37.564;2023-04-20T04:58:26;100092.75;;;23.38;25.87
25084;BME280;13075;55.682;37.564;2023-04-20T05:00:51;100084.53;;;25.62;23.97
25084;BME280;13075;55.682;37.564;2023-04-20T05:03:17;100075.47;;;28.39;21.79
25084;BME280;13075;55.682;37.564;2023-04-20T05:05:42;100075.00;;;30.69;19.87
25084;BME280;13075;55.682;37.564;2023-04-20T05:08:08;100081.19;;;29.82;20.22
25084;BME280;13075;55.682;37.564;2023-04-20T05:10:33;100075.34;;;28.30;21.11
25084;BME280;13075;55.682;37.564;2023-04-20T05:12:58;100071.75;;;28.16;20.91
25084;BME280;13075;55.682;37.564;2023-04-20T05:15:24;100069.34;;;28.28;21.14
25084;BME280;13075;55.682;37.564;2023-04-20T05:17:50;100074.69;;;31.27;19.11
25084;BME280;13075;55.682;37.564;2023-04-20T05:20:16;100068.22;;;34.89;17.11
25084;BME280;13075;55.682;37.564;2023-04-20T05:22:41;100070.69;;;36.73;15.59
25084;BME280;13075;55.682;37.564;2023-04-20T05:25:07;100065.44;;;36.09;16.10
25084;BME280;13075;55.682;37.564;2023-04-20T05:27:32;100064.03;;;34.59;16.75
25084;BME280;13075;55.682;37.564;2023-04-20T05:29:58;100067.91;;;33.06;17.87
25084;BME280;13075;55.682;37.564;2023-04-20T05:32:24;100066.41;;;33.59;17.33
25084;BME280;13075;55.682;37.564;2023-04-20T05:34:49;100060.84;;;31.10;18.51
25084;BME280;13075;55.682;37.564;2023-04-20T05:37:15;100063.34;;;27.75;21.16
25084;BME280;13075;55.682;37.564;2023-04-20T05:39:41;100056.31;;;30.04;20.01
25084;BME280;13075;55.682;37.564;2023-04-20T05:42:06;100063.81;;;33.74;17.28
25084;BME280;13075;55.682;37.564;2023-04-20T05:44:32;100055.06;;;37.19;15.34
25084;BME280;13075;55.682;37.564;2023-04-20T05:46:58;100048.28;;;37.01;15.43
25084;BME280;13075;55.682;37.564;2023-04-20T05:49:23;100057.59;;;33.57;17.01
25084;BME280;13075;55.682;37.564;2023-04-20T05:51:49;100056.28;;;28.48;19.94
25084;BME280;13075;55.682;37.564;2023-04-20T05:54:15;100059.97;;;27.09;21.24
25084;BME280;13075;55.682;37.564;2023-04-20T05:56:40;100062.72;;;28.70;20.64
25084;BME280;13075;55.682;37.564;2023-04-20T05:59:05;100058.53;;;27.67;20.92
25084;BME280;13075;55.682;37.564;2023-04-20T06:01:31;100060.84;;;27.93;21.09
25084;BME280;13075;55.682;37.564;2023-04-20T06:03:57;100059.75;;;31.54;18.97
25084;BME280;13075;55.682;37.564;2023-04-20T06:06:22;100052.09;;;32.78;17.75
25084;BME280;13075;55.682;37.564;2023-04-20T06:08:48;100049.66;;;34.69;16.88
25084;BME280;13075;55.682;37.564;2023-04-20T06:11:15;100053.72;;;35.08;16.42
25084;BME280;13075;55.682;37.564;2023-04-20T06:13:40;100047.31;;;35.87;16.54
25084;BME280;13075;55.682;37.564;2023-04-20T06:16:06;100040.03;;;37.62;15.54
25084;BME280;13075;55.682;37.564;2023-04-20T06:18:33;100045.22;;;36.43;15.53
25084;BME280;13075;55.682;37.564;2023-04-20T06:20:59;100038.78;;;34.88;16.66
25084;BME280;13075;55.682;37.564;2023-04-20T06:23:26;100040.06;;;37.08;15.46
25084;BME280;13075;55.682;37.564;2023-04-20T06:25:51;100035.88;;;37.17;14.96
25084;BME280;13075;55.682;37.564;2023-04-20T06:28:17;100037.97;;;39.17;14.35
25084;BME280;13075;55.682;37.564;2023-04-20T06:30:42;100036.41;;;38.94;14.35
25084;BME280;13075;55.682;37.564;2023-04-20T06:33:08;100034.38;;;38.19;14.80
25084;BME280;13075;55.682;37.564;2023-04-20T06:35:33;100038.06;;;38.72;14.39
25084;BME280;13075;55.682;37.564;2023-04-20T06:37:59;100041.94;;;39.16;14.04
25084;BME280;13075;55.682;37.564;2023-04-20T06:40:27;100041.25;;;38.25;14.43
25084;BME280;13075;55.682;37.564;2023-04-20T06:42:52;100030.97;;;39.31;14.10
25084;BME280;13075;55.682;37.564;2023-04-20T06:45:18;100029.00;;;40.92;12.90
25084;BME280;13075;55.682;37.564;2023-04-20T06:47:44;100022.25;;;42.11;12.48
25084;BME280;13075;55.682;37.564;2023-04-20T06:50:09;100021.72;;;40.88;12.67
25084;BME280;13075;55.682;37.564;2023-04-20T06:52:36;100016.44;;;39.55;13.44
25084;BME280;13075;55.682;37.564;2023-04-20T06:55:01;100016.13;;;35.82;15.19
25084;BME280;13075;55.682;37.564;2023-04-20T06:57:26;100013.91;;;35.59;15.42
25084;BME280;13075;55.682;37.564;2023-04-20T06:59:52;100014.25;;;36.95;14.84
25084;BME280;13075;55.682;37.564;2023-04-20T07:02:17;100019.88;;;37.72;14.57
25084;BME280;13075;55.682;37.564;2023-04-20T07:04:43;100011.75;;;39.99;13.44
25084;BME280;13075;55.682;37.564;2023-04-20T07:07:08;100009.75;;;42.90;12.15
25084;BME280;13075;55.682;37.564;2023-04-20T07:09:34;99995.00;;;43.66;11.79
25084;BME280;13075;55.682;37.564;2023-04-20T07:11:59;100002.25;;;44.73;11.32
25084;BME280;13075;55.682;37.564;2023-04-20T07:14:25;99992.50;;;45.49;10.69
25084;BME280;13075;55.682;37.564;2023-04-20T07:16:53;99990.19;;;44.25;11.22
25084;BME280;13075;55.682;37.564;2023-04-20T07:19:19;99992.38;;;46.13;10.67
25084;BME280;13075;55.682;37.564;2023-04-20T07:21:45;99986.28;;;47.04;10.28
25084;BME280;13075;55.682;37.564;2023-04-20T07:24:10;99981.78;;;47.81;9.52
25084;BME280;13075;55.682;37.564;2023-04-20T07:26:36;99974.97;;;48.27;9.45
25084;BME280;13075;55.682;37.564;2023-04-20T07:29:01;99988.47;;;47.35;9.20
25084;BME280;13075;55.682;37.564;2023-04-20T07:31:27;99980.31;;;46.78;9.85
25084;BME280;13075;55.682;37.564;2023-04-20T07:33:52;99973.59;;;46.92;9.81
25084;BME280;13075;55.682;37.564;2023-04-20T07:36:18;99973.28;;;46.86;9.79
25084;BME280;13075;55.682;37.564;2023-04-20T07:38:44;99975.94;;;48.82;9.53
25084;BME280;13075;55.682;37.564;2023-04-20T07:41:10;99965.94;;;49.47;9.43
25084;BME280;13075;55.682;37.564;2023-04-20T07:43:36;99966.84;;;52.02;8.67
25084;BME280;13075;55.682;37.564;2023-04-20T07:46:01;99963.41;;;49.49;8.79
25084;BME280;13075;55.682;37.564;2023-04-20T07:48:27;99953.75;;;49.34;8.70
25084;BME280;13075;55.682;37.564;2023-04-20T07:50:52;99959.75;;;49.36;8.73
25084;BME280;13075;55.682;37.564;2023-04-20T07:53:17;99954.88;;;48.95;8.57
25084;BME280;13075;55.682;37.564;2023-04-20T07:55:43;99951.72;;;49.60;8.22
25084;BME280;13075;55.682;37.564;2023-04-20T07:58:08;99978.19;;;45.63;8.48
25084;BME280;13075;55.682;37.564;2023-04-20T08:00:34;99958.50;;;48.06;8.59
25084;BME280;13075;55.682;37.564;2023-04-20T08:02:59;99958.56;;;50.47;7.92
25084;BME280;13075;55.682;37.564;2023-04-20T08:05:25;99959.56;;;50.53;7.62
25084;BME280;13075;55.682;37.564;2023-04-20T08:07:51;99956.69;;;47.96;8.26
25084;BME280;13075;55.682;37.564;2023-04-20T08:10:16;99962.94;;;51.38;7.22
25084;BME280;13075;55.682;37.564;2023-04-20T08:12:42;99946.34;;;46.55;8.60
25084;BME280;13075;55.682;37.564;2023-04-20T08:15:07;99940.59;;;49.11;8.42
25084;BME280;13075;55.682;37.564;2023-04-20T08:17:33;99948.81;;;48.20;8.18
25084;BME280;13075;55.682;37.564;2023-04-20T08:19:58;99943.16;;;44.11;9.50
25084;BME280;13075;55.682;37.564;2023-04-20T08:22:24;99953.03;;;36.86;12.96
25084;BME280;13075;55.682;37.564;2023-04-20T08:24:54;99953.16;;;35.22;13.18
25084;BME280;13075;55.682;37.564;2023-04-20T08:27:20;99945.03;;;33.47;13.70
25084;BME280;13075;55.682;37.564;2023-04-20T08:29:45;99953.25;;;32.23;14.64
25084;BME280;13075;55.682;37.564;2023-04-20T08:32:11;99946.59;;;30.58;15.62
25084;BME280;13075;55.682;37.564;2023-04-20T08:34:37;99947.13;;;29.15;16.27
25084;BME280;13075;55.682;37.564;2023-04-20T08:37:02;99939.66;;;28.16;17.29
25084;BME280;13075;55.682;37.564;2023-04-20T08:39:28;99938.19;;;29.53;16.41
25084;BME280;13075;55.682;37.564;2023-04-20T08:41:54;99936.69;;;28.26;17.52
25084;BME280;13075;55.682;37.564;2023-04-20T08:44:22;99944.25;;;27.10;18.38
25084;BME280;13075;55.682;37.564;2023-04-20T08:46:47;99940.88;;;27.51;17.66
25084;BME280;13075;55.682;37.564;2023-04-20T08:49:17;99946.16;;;28.61;17.40
25084;BME280;13075;55.682;37.564;2023-04-20T08:51:43;99924.44;;;29.31;17.14
25084;BME280;13075;55.682;37.564;2023-04-20T08:54:09;99936.84;;;30.69;16.63
25084;BME280;13075;55.682;37.564;2023-04-20T08:56:36;99934.63;;;29.09;16.69
25084;BME280;13075;55.682;37.564;2023-04-20T08:59:01;99941.91;;;28.91;17.09
25084;BME280;13075;55.682;37.564;2023-04-20T09:01:33;99938.22;;;28.46;17.14
25084;BME280;13075;55.682;37.564;2023-04-20T09:03:59;99933.66;;;29.13;16.81
25084;BME280;13075;55.682;37.564;2023-04-20T09:06:25;99933.94;;;28.40;17.06
25084;BME280;13075;55.682;37.564;2023-04-20T09:08:51;99937.03;;;26.58;18.42
25084;BME280;13075;55.682;37.564;2023-04-20T09:11:23;99935.13;;;25.93;19.31
25084;BME280;13075;55.682;37.564;2023-04-20T09:16:26;99938.03;;;26.25;19.13
25084;BME280;13075;55.682;37.564;2023-04-20T09:18:52;99933.13;;;25.41;19.73
25084;BME280;13075;55.682;37.564;2023-04-20T09:21:18;99929.09;;;25.91;19.18
25084;BME280;13075;55.682;37.564;2023-04-20T09:23:54;99922.34;;;26.31;19.05
25084;BME280;13075;55.682;37.564;2023-04-20T09:26:19;99913.19;;;26.78;18.93
25084;BME280;13075;55.682;37.564;2023-04-20T09:28:45;99928.41;;;26.28;19.20
25084;BME280;13075;55.682;37.564;2023-04-20T09:31:21;99924.09;;;27.34;18.54
25084;BME280;13075;55.682;37.564;2023-04-20T09:33:56;99930.13;;;27.95;18.09
25084;BME280;13075;55.682;37.564;2023-04-20T09:36:22;99923.09;;;25.65;19.57
25084;BME280;13075;55.682;37.564;2023-04-20T09:38:59;99923.97;;;25.56;19.86
25084;BME280;13075;55.682;37.564;2023-04-20T09:41:25;99914.19;;;25.16;20.23
25084;BME280;13075;55.682;37.564;2023-04-20T09:43:51;99910.03;;;25.81;19.87
25084;BME280;13075;55.682;37.564;2023-04-20T09:46:16;99906.06;;;25.06;20.17
25084;BME280;13075;55.682;37.564;2023-04-20T09:48:42;99909.53;;;25.74;19.73
25084;BME280;13075;55.682;37.564;2023-04-20T09:51:07;99903.88;;;26.79;18.89
25084;BME280;13075;55.682;37.564;2023-04-20T09:53:33;99900.72;;;26.48;18.95
25084;BME280;13075;55.682;37.564;2023-04-20T09:55:59;99900.19;;;27.66;18.70
25084;BME280;13075;55.682;37.564;2023-04-20T09:58:25;99887.00;;;26.85;19.19
25084;BME280;13075;55.682;37.564;2023-04-20T10:00:51;99889.13;;;25.61;19.90
25084;BME280;13075;55.682;37.564;2023-04-20T10:03:20;99882.16;;;25.16;20.27
25084;BME280;13075;55.682;37.564;2023-04-20T10:05:45;99888.81;;;24.61;20.40
25084;BME280;13075;55.682;37.564;2023-04-20T10:08:11;99884.88;;;24.34;20.80
25084;BME280;13075;55.682;37.564;2023-04-20T10:10:47;99892.09;;;24.04;21.19
25084;BME280;13075;55.682;37.564;2023-04-20T10:13:13;99895.16;;;23.88;21.29
25084;BME280;13075;55.682;37.564;2023-04-20T10:15:39;99894.84;;;23.99;21.55
25084;BME280;13075;55.682;37.564;2023-04-20T10:18:18;99891.34;;;23.89;21.36
25084;BME280;13075;55.682;37.564;2023-04-20T10:20:44;99888.94;;;23.62;21.73
25084;BME280;13075;55.682;37.564;2023-04-20T10:23:10;99890.53;;;23.83;21.56
25084;BME280;13075;55.682;37.564;2023-04-20T10:25:36;99893.47;;;24.02;21.35
25084;BME280;13075;55.682;37.564;2023-04-20T10:28:02;99893.56;;;23.77;21.24
25084;BME280;13075;55.682;37.564;2023-04-20T10:30:30;99889.25;;;22.80;21.73
25084;BME280;13075;55.682;37.564;2023-04-20T10:33:02;99886.78;;;22.68;21.94
25084;BME280;13075;55.682;37.564;2023-04-20T10:35:28;99891.19;;;23.10;21.53
25084;BME280;13075;55.682;37.564;2023-04-20T10:37:54;99881.28;;;22.58;21.87
25084;BME280;13075;55.682;37.564;2023-04-20T10:40:25;99887.47;;;22.28;21.94
25084;BME280;13075;55.682;37.564;2023-04-20T10:42:51;99886.66;;;22.33;22.00
25084;BME280;13075;55.682;37.564;2023-04-20T10:45:16;99885.16;;;22.92;21.68
25084;BME280;13075;55.682;37.564;2023-04-20T10:47:42;99883.00;;;23.40;21.48
25084;BME280;13075;55.682;37.564;2023-04-20T10:50:10;99878.59;;;23.44;21.47
25084;BME280;13075;55.682;37.564;2023-04-20T10:52:36;99871.66;;;23.87;21.17
25084;BME280;13075;55.682;37.564;2023-04-20T10:55:02;99872.25;;;23.74;20.95
25084;BME280;13075;55.682;37.564;2023-04-20T10:57:28;99877.97;;;23.77;21.35
25084;BME280;13075;55.682;37.564;2023-04-20T10:59:53;99864.63;;;22.55;22.24
25084;BME280;13075;55.682;37.564;2023-04-20T11:02:19;99863.31;;;23.48;21.90
25084;BME280;13075;55.682;37.564;2023-04-20T11:04:44;99863.31;;;23.28;21.80
25084;BME280;13075;55.682;37.564;2023-04-20T11:07:10;99864.69;;;23.40;21.72
25084;BME280;13075;55.682;37.564;2023-04-20T11:09:40;99862.78;;;22.65;22.10
25084;BME280;13075;55.682;37.564;2023-04-20T11:12:07;99863.44;;;22.15;21.96
25084;BME280;13075;55.682;37.564;2023-04-20T11:14:34;99859.72;;;22.47;21.74
25084;BME280;13075;55.682;37.564;2023-04-20T11:17:00;99850.75;;;22.76;21.38
25084;BME280;13075;55.682;37.564;2023-04-20T11:19:26;99849.69;;;23.23;20.91
25084;BME280;13075;55.682;37.564;2023-04-20T11:21:52;99852.06;;;22.54;21.74
25084;BME280;13075;55.682;37.564;2023-04-20T11:24:18;99846.84;;;22.17;22.11
25084;BME280;13075;55.682;37.564;2023-04-20T11:26:44;99849.59;;;22.32;22.28
25084;BME280;13075;55.682;37.564;2023-04-20T11:29:10;99844.50;;;22.96;21.80
25084;BME280;13075;55.682;37.564;2023-04-20T11:31:35;99842.31;;;23.13;21.50
25084;BME280;13075;55.682;37.564;2023-04-20T11:34:01;99831.38;;;23.13;21.18
25084;BME280;13075;55.682;37.564;2023-04-20T11:36:28;99840.41;;;22.93;21.17
25084;BME280;13075;55.682;37.564;2023-04-20T11:38:54;99825.91;;;23.23;20.96
25084;BME280;13075;55.682;37.564;2023-04-20T11:41:22;99833.28;;;23.13;21.09
25084;BME280;13075;55.682;37.564;2023-04-20T11:43:48;99825.09;;;23.18;21.25
25084;BME280;13075;55.682;37.564;2023-04-20T11:46:14;99816.41;;;22.90;21.33
25084;BME280;13075;55.682;37.564;2023-04-20T11:48:40;99834.66;;;23.05;21.19
25084;BME280;13075;55.682;37.564;2023-04-20T11:51:06;99817.75;;;22.83;23.22
25084;BME280;13075;55.682;37.564;2023-04-20T11:53:31;99803.00;;;23.09;23.53
25084;BME280;13075;55.682;37.564;2023-04-20T11:55:57;99807.66;;;23.09;24.16
25084;BME280;13075;55.682;37.564;2023-04-20T11:58:22;99800.88;;;22.66;24.48
25084;BME280;13075;55.682;37.564;2023-04-20T12:00:48;99799.69;;;22.31;25.24
25084;BME280;13075;55.682;37.564;2023-04-20T12:03:13;99799.09;;;21.47;25.20
25084;BME280;13075;55.682;37.564;2023-04-20T12:05:39;99807.22;;;21.89;25.29
25084;BME280;13075;55.682;37.564;2023-04-20T12:08:04;99800.63;;;20.91;25.77
25084;BME280;13075;55.682;37.564;2023-04-20T12:10:32;99800.34;;;21.82;24.77
25084;BME280;13075;55.682;37.564;2023-04-20T12:12:57;99791.88;;;21.73;24.90
25084;BME280;13075;55.682;37.564;2023-04-20T12:15:24;99790.41;;;22.17;24.37
25084;BME280;13075;55.682;37.564;2023-04-20T12:17:49;99793.94;;;22.13;24.38
25084;BME280;13075;55.682;37.564;2023-04-20T12:20:14;99796.69;;;22.28;24.54
25084;BME280;13075;55.682;37.564;2023-04-20T12:22:40;99787.66;;;22.12;24.81
25084;BME280;13075;55.682;37.564;2023-04-20T12:25:05;99776.78;;;21.50;25.11
25084;BME280;13075;55.682;37.564;2023-04-20T12:27:31;99767.66;;;21.82;24.91
25084;BME280;13075;55.682;37.564;2023-04-20T12:29:56;99766.84;;;21.81;24.86
25084;BME280;13075;55.682;37.564;2023-04-20T12:32:22;99772.13;;;22.08;24.59
25084;BME280;13075;55.682;37.564;2023-04-20T12:34:47;99769.97;;;22.30;24.48
25084;BME280;13075;55.682;37.564;2023-04-20T12:37:13;99764.50;;;22.35;24.49
25084;BME280;13075;55.682;37.564;2023-04-20T12:39:39;99760.16;;;22.29;24.53
25084;BME280;13075;55.682;37.564;2023-04-20T12:42:04;99762.38;;;22.62;24.29
25084;BME280;13075;55.682;37.564;2023-04-20T12:44:30;99753.47;;;21.74;24.73